Date,TemperatureHighF,TemperatureAvgF,TemperatureLowF,DewpointHighF,DewpointAvgF,DewpointLowF,HumidityHigh,HumidityAvg,HumidityLow,PressureMaxIn,PressureMinIn,WindSpeedMaxMPH,WindSpeedAvgMPH,GustSpeedMaxMPH,PrecipitationSumIn
2013-1-1,75,66,54,67,61,52,97,85,65,30.10,29.92,21,3,21,0.12
2013-1-2,68,54,48,65,50,42,94,87,62,30.15,29.93,15,3,15,1.00
2013-1-3,48,43,36,43,40,32,94,88,80,30.31,30.12,14,2,14,0.32
2013-1-4,55,44,34,36,32,29,86,65,42,30.37,30.27,13,2,13,0.02
2013-1-5,54,47,38,40,34,28,79,59,44,30.35,30.19,10,1,10,0.02
2013-1-6,54,50,46,45,41,37,85,72,58,30.27,30.14,11,1,12,0.01
2013-1-7,61,49,40,40,38,36,86,66,40,30.30,30.17,14,2,14,0.02
2013-1-8,62,56,46,56,48,37,84,76,69,30.27,30.14,8,1,8,0.02
2013-1-9,71,64,61,65,60,56,93,87,80,30.27,30.15,11,1,11,0.00
2013-1-10,74,68,63,68,65,61,96,90,79,30.28,30.11,17,1,17,0.16
2013-1-11,75,68,62,69,65,60,96,90,79,30.17,30.04,8,1,14,0.01
2013-1-12,77,70,65,66,65,0,97,86,66,30.42,29.99,16,1,16,0.00
2013-1-13,76,70,67,69,68,66,96,91,77,30.03,29.95,12,2,17,0.06
2013-1-14,75,70,69,71,69,67,97,94,82,30.09,30.00,13,1,13,0.24
2013-1-15,75,70,67,70,68,63,96,93,82,30.04,29.91,19,2,22,0.41
2013-1-16,73,62,49,70,61,48,97,94,83,29.98,29.89,16,2,16,0.59
2013-1-17,49,42,39,48,37,31,96,82,70,30.25,29.95,26,4,26,0.04
2013-1-18,59,44,35,38,34,31,89,70,39,30.47,30.23,18,2,18,0.00
2013-1-19,61,48,32,46,39,29,92,72,50,30.39,30.20,10,1,11,0.00
2013-1-20,67,51,39,49,42,37,94,73,41,30.24,30.09,12,1,12,0.00
2013-1-21,66,51,36,46,40,34,95,68,38,30.17,30.07,7,1,9,0.00
2013-1-22,59,46,36,39,32,24,84,59,32,30.33,30.15,14,1,14,0.00
2013-1-23,66,48,32,48,39,29,90,73,46,30.40,30.26,14,0,14,0.00
2013-1-24,73,56,40,56,48,38,96,78,49,30.31,30.20,14,1,14,0.00
2013-1-25,70,57,44,57,50,42,96,81,57,30.28,30.14,21,2,22,0.00
2013-1-26,72,60,49,60,54,47,97,84,63,30.24,30.14,10,0,10,0.00
2013-1-27,73,60,49,58,52,45,94,78,55,30.31,30.22,9,0,9,0.00
2013-1-28,71,63,55,63,59,53,94,87,75,30.30,30.15,9,0,9,0.00
2013-1-29,76,67,60,69,64,58,97,90,75,30.16,29.89,17,2,17,0.12
2013-1-30,77,64,45,71,60,33,97,88,65,30.04,29.61,41,6,41,0.35
2013-1-31,58,45,35,34,30,24,83,59,28,30.28,30.04,22,2,22,0.00
2013-2-1,60,45,34,38,32,23,91,63,33,30.37,30.25,16,1,16,0.00
2013-2-2,65,48,31,44,31,20,85,55,27,30.35,30.13,14,1,14,0.00
2013-2-3,67,53,42,48,39,30,94,66,27,30.22,30.08,20,1,20,0.04
2013-2-4,65,52,38,52,42,34,90,70,40,30.11,29.96,9,0,9,0.00
2013-2-5,66,58,53,60,55,51,95,90,78,30.03,29.93,8,0,8,0.16
2013-2-6,71,60,54,59,56,52,97,86,63,30.12,30.00,12,1,12,0.01
2013-2-7,72,62,55,63,58,52,97,87,66,30.03,24.43,22,2,22,1.76
2013-2-8,70,59,49,59,53,47,97,82,60,30.12,29.90,12,1,12,0.00
2013-2-9,69,54,42,50,43,37,91,70,33,30.24,30.12,16,1,16,0.00
2013-2-10,70,60,44,68,56,41,92,88,78,30.14,29.98,24,3,24,0.01
2013-2-11,78,66,57,71,63,55,97,92,74,30.28,29.98,25,4,25,1.94
2013-2-12,72,64,58,70,62,56,96,92,81,30.03,29.72,27,3,27,0.31
2013-2-13,70,61,46,68,57,43,96,88,58,30.02,29.73,15,0,15,0.14
2013-2-14,56,45,37,43,40,34,91,81,57,30.12,29.97,10,0,10,0.01
2013-2-15,66,49,33,45,38,22,96,69,34,30.14,29.91,6,0,6,0.00
2013-2-16,54,46,32,42,28,16,81,53,27,30.25,30.00,26,2,26,0.01
2013-2-17,56,40,28,30,23,15,82,55,24,30.37,30.23,11,0,11,0.01
2013-2-18,65,49,32,43,37,27,84,67,44,30.42,30.05,17,1,17,0.01
2013-2-19,67,59,41,61,47,27,94,65,33,30.17,29.97,19,2,19,0.31
2013-2-20,58,45,34,35,28,22,83,54,27,30.22,30.07,13,1,13,0.00
2013-2-21,68,54,35,62,43,30,93,68,39,30.10,29.91,13,1,13,0.00
2013-2-22,70,67,64,70,66,62,98,97,93,29.95,29.85,11,0,11,2.17
2013-2-23,71,62,56,70,60,54,98,95,91,29.93,29.75,16,1,16,0.84
2013-2-24,71,61,51,54,51,47,97,74,46,29.97,29.81,13,1,13,0.58
2013-2-25,76,60,56,76,58,54,100,93,79,31.27,29.50,16,2,17,2.04
2013-2-26,66,60,50,65,52,42,97,77,49,29.89,29.48,23,4,23,0.46
2013-2-27,70,49,42,44,42,0,92,78,42,30.15,22.73,14,0,14,0.00
2013-2-28,71,51,43,52,36,-35,90,60,33,31.03,28.02,20,1,20,0.00
2013-3-1,55,46,38,35,32,-47,77,60,39,30.12,23.54,15,1,15,0.00
2013-3-2,50,40,31,30,26,23,84,59,37,30.13,30.02,22,3,22,0.00
2013-3-3,52,40,32,28,24,19,81,55,29,30.17,30.06,18,2,18,0.00
2013-3-4,64,48,29,48,37,26,90,69,31,30.19,29.98,16,1,18,0.00
2013-3-5,74,62,45,62,55,38,95,78,53,30.10,29.89,35,4,35,0.04
2013-3-6,58,47,38,38,31,25,87,56,31,30.23,30.08,21,3,21,0.00
2013-3-7,65,48,34,40,32,26,86,59,28,31.74,30.17,11,0,11,0.00
2013-3-8,73,53,32,43,36,30,93,60,23,30.28,30.15,10,0,10,0.00
2013-3-9,72,57,43,50,42,39,87,61,35,30.24,30.07,15,0,15,0.00
2013-3-10,74,62,52,59,52,0,91,71,51,32.56,24.52,19,1,22,0.00
2013-3-11,70,59,48,63,56,0,96,90,78,32.77,24.22,22,2,22,0.23
2013-3-12,65,51,41,43,36,32,89,61,31,30.15,29.90,21,2,21,0.00
2013-3-13,66,52,37,39,31,21,88,50,23,30.29,30.13,25,2,25,0.00
2013-3-14,64,48,36,33,26,23,72,45,21,30.40,30.24,18,1,18,0.00
2013-3-15,74,54,35,49,40,31,90,64,31,30.28,30.12,17,1,17,0.00
2013-3-16,76,61,43,57,51,41,95,73,42,30.12,29.98,24,2,24,0.00
2013-3-17,73,61,53,64,58,51,97,90,68,30.02,29.91,11,0,11,0.00
2013-3-18,79,68,57,69,63,56,97,86,69,29.94,29.78,16,0,16,0.01
2013-3-19,78,65,58,61,53,39,95,68,35,30.03,29.86,14,1,14,0.03
2013-3-20,65,57,41,39,34,30,74,43,29,30.07,29.93,15,2,16,0.00
2013-3-21,65,50,40,40,31,20,78,52,21,30.04,29.88,15,1,15,0.00
2013-3-22,68,58,50,48,38,29,70,49,29,29.98,29.87,16,1,16,0.00
2013-3-23,69,61,56,62,54,39,97,77,48,29.89,29.59,10,0,11,0.18
2013-3-24,84,71,50,71,58,33,98,66,27,29.87,29.51,26,3,26,0.01
2013-3-25,60,49,39,34,26,19,68,44,24,30.18,29.87,24,3,25,0.00
2013-3-26,56,44,33,27,24,22,68,47,29,30.34,30.17,23,3,23,0.01
2013-3-27,62,46,31,34,27,24,77,52,25,30.40,30.24,13,1,13,0.01
2013-3-28,72,51,31,40,34,28,90,57,21,30.34,30.20,12,0,12,0.01
2013-3-29,76,56,38,48,39,34,90,60,24,30.32,30.19,18,1,18,0.01
2013-3-30,77,61,46,59,52,43,95,75,43,30.22,30.05,20,1,20,0.01
2013-3-31,80,67,55,64,60,54,97,79,47,30.06,29.88,18,1,18,0.01
2013-4-1,76,67,55,64,59,50,95,78,48,30.03,29.87,12,1,12,0.01
2013-4-2,84,64,46,52,48,43,95,61,28,30.11,29.99,13,0,13,0.00
2013-4-3,62,58,53,58,54,50,96,87,72,30.06,29.79,17,1,17,0.44
2013-4-4,74,65,59,64,60,57,97,85,63,29.93,29.81,10,0,10,0.00
2013-4-5,64,57,47,59,52,0,94,84,55,30.10,29.22,15,1,18,0.00
2013-4-6,75,58,40,53,46,38,95,69,36,30.15,30.05,10,0,10,0.00
2013-4-7,77,60,48,62,53,45,94,80,55,30.15,30.02,11,0,11,0.00
2013-4-8,82,68,57,63,58,55,97,74,44,30.10,29.99,17,0,17,0.00
2013-4-9,84,70,58,62,60,56,96,72,44,30.11,29.97,11,0,12,0.00
2013-4-10,85,70,57,66,61,55,95,74,48,30.07,29.88,18,0,18,0.00
2013-4-11,80,71,66,72,68,62,97,90,76,29.90,29.59,26,1,26,1.16
2013-4-12,75,64,53,67,53,45,97,71,36,29.94,29.71,14,0,14,0.00
2013-4-13,82,66,46,54,47,43,92,56,27,30.02,29.87,7,0,8,0.00
2013-4-14,62,60,58,60,58,54,97,91,76,29.94,29.63,17,0,18,1.46
2013-4-15,83,70,59,71,65,58,97,85,64,30.04,29.82,1,0,1,0.00
2013-4-16,89,75,64,72,66,62,95,76,48,30.11,30.01,10,0,10,0.00
2013-4-17,85,74,66,70,66,62,97,80,56,30.13,30.00,0,0,3,0.00
2013-4-18,81,72,62,71,66,60,97,85,68,30.01,29.86,12,0,12,0.00
2013-4-19,76,66,51,73,62,49,93,89,78,30.01,29.80,19,1,19,0.28
2013-4-20,67,57,48,45,43,40,85,63,39,30.17,30.09,12,0,12,0.29
2013-4-21,71,52,43,51,44,40,91,77,45,30.19,30.13,15,1,15,0.00
2013-4-22,60,58,57,56,55,55,92,90,86,30.09,30.07,0,0,0,0.00
2013-4-23,81,66,54,62,58,53,96,76,50,30.13,30.02,9,0,9,0.00
2013-4-24,81,64,57,69,60,55,98,87,56,30.12,30.01,9,0,9,0.00
2013-4-25,81,68,60,64,57,39,97,72,43,30.25,30.09,10,0,10,0.00
2013-4-26,84,68,53,55,47,37,79,48,31,30.29,30.18,12,0,12,0.00
2013-4-27,82,69,54,68,62,51,95,80,60,30.21,30.05,12,0,12,0.00
2013-4-28,84,74,67,69,65,61,97,77,47,30.09,29.93,13,0,13,0.00
2013-4-29,83,70,65,68,65,61,96,85,50,29.98,29.88,10,0,10,0.08
2013-4-30,85,72,61,70,64,60,98,79,49,29.97,29.88,8,0,8,0.00
2013-5-1,69,68,66,67,65,63,97,92,86,29.99,29.87,15,1,15,0.30
2013-5-2,78,69,64,67,64,60,91,82,68,29.99,29.87,16,1,16,0.01
2013-5-3,70,67,63,64,63,61,96,87,77,29.92,29.78,17,1,17,0.35
2013-5-4,68,56,47,62,45,38,96,71,36,29.90,29.81,20,2,20,0.66
2013-5-5,75,58,43,59,45,40,95,65,31,29.95,29.77,24,1,24,0.00
2013-5-6,70,58,43,54,47,40,93,69,45,29.99,29.89,16,0,16,0.00
2013-5-7,76,64,52,59,55,50,95,76,51,30.03,29.90,11,0,11,0.00
2013-5-8,83,68,52,64,58,51,97,74,41,30.09,29.98,14,0,14,0.00
2013-5-9,85,71,58,68,61,56,98,74,43,30.13,30.03,13,0,13,0.00
2013-5-10,80,70,60,68,63,58,97,82,55,30.12,29.91,15,0,15,0.00
2013-5-11,74,68,60,68,65,59,97,90,78,30.04,29.92,7,0,7,0.22
2013-5-12,80,73,62,57,55,51,71,54,38,30.08,30.00,10,0,10,0.22
2013-5-13,78,65,50,52,45,38,83,52,27,30.24,30.08,13,0,13,0.22
2013-5-14,84,67,48,55,51,45,93,60,31,30.26,30.13,10,0,14,0.22
2013-5-15,87,72,54,63,55,50,96,58,33,30.20,30.03,13,0,13,0.00
2013-5-16,84,72,64,68,63,56,93,75,56,30.06,29.97,11,0,11,0.00
2013-5-17,86,74,63,71,67,61,97,81,55,30.06,29.96,14,0,14,0.00
2013-5-18,86,76,66,72,68,65,98,79,55,30.09,30.00,13,0,13,0.00
2013-5-19,88,76,67,73,69,65,98,81,53,30.06,29.98,8,0,8,0.00
2013-5-20,92,78,69,74,70,67,98,77,50,30.05,29.94,9,0,9,0.00
2013-5-21,92,78,65,72,67,64,97,74,43,30.01,29.87,7,0,7,0.00
2013-5-22,88,76,66,72,69,64,98,80,53,29.98,29.86,12,0,12,0.00
2013-5-23,73,72,71,70,70,69,94,93,91,29.93,29.91,0,0,0,0.00
2013-5-24,81,75,70,53,52,51,53,45,36,30.14,30.07,6,0,6,0.00
2013-5-25,91,74,60,55,51,47,75,47,24,30.22,30.11,14,0,14,0.00
2013-5-26,92,74,59,68,61,54,91,67,36,30.21,30.10,13,0,13,0.00
2013-5-27,92,77,64,69,62,54,97,65,30,30.18,29.73,10,0,10,0.00
2013-5-28,91,76,62,71,65,58,93,71,43,30.09,30.03,11,0,11,0.00
2013-5-29,91,78,66,74,68,59,93,74,52,30.08,30.00,13,0,13,0.00
2013-5-30,90,80,70,74,69,64,94,72,50,30.09,29.99,10,0,11,0.01
2013-5-31,90,79,70,72,70,67,93,76,54,30.08,29.98,10,0,10,0.00
2013-6-1,90,79,70,73,71,68,94,78,55,30.01,29.93,10,0,10,0.00
2013-6-2,93,79,69,74,71,68,97,79,51,29.98,29.83,13,0,13,0.01
2013-6-3,88,78,71,76,72,69,95,83,59,29.92,29.83,10,0,10,0.36
2013-6-4,92,79,71,77,73,69,97,83,58,29.95,29.88,8,0,8,0.03
2013-6-5,89,79,73,76,72,69,97,81,58,29.95,29.83,9,0,9,0.02
2013-6-6,85,77,70,72,71,69,97,82,62,29.90,29.68,11,0,11,0.06
2013-6-7,88,76,68,74,69,67,95,82,53,29.89,29.71,16,0,16,0.27
2013-6-8,91,79,68,74,71,66,97,78,54,30.03,29.86,11,0,11,0.00
2013-6-9,76,71,70,72,70,68,98,96,86,30.08,29.94,9,0,9,4.41
2013-6-10,82,74,71,76,72,70,98,92,73,30.08,29.97,10,0,10,4.23
2013-6-11,95,81,70,78,73,68,98,79,43,30.08,29.97,12,0,12,4.23
2013-6-12,96,84,73,78,74,70,98,75,44,30.07,29.96,6,0,6,4.23
2013-6-13,95,82,74,77,74,71,95,79,48,30.00,29.83,10,0,10,0.00
2013-6-14,92,83,77,76,72,66,90,71,50,29.93,29.80,10,0,10,0.00
2013-6-15,94,82,72,76,71,65,91,71,46,30.02,29.90,9,0,10,0.00
2013-6-16,92,82,74,78,75,73,96,81,57,30.06,29.96,11,0,11,0.00
2013-6-17,90,81,75,78,75,73,97,84,65,30.01,29.93,14,0,14,0.21
2013-6-18,90,81,72,78,74,70,95,81,57,30.00,29.87,18,0,20,0.09
2013-6-19,88,78,71,75,72,69,98,84,62,30.01,29.90,19,0,19,0.47
2013-6-20,91,78,71,74,72,70,97,83,52,30.08,29.97,9,0,9,0.31
2013-6-21,90,79,71,75,73,70,97,82,58,30.11,30.02,11,0,11,0.08
2013-6-22,90,78,70,81,71,-13,95,80,55,31.06,29.98,10,0,10,0.08
2013-6-23,84,77,72,77,73,17,97,89,71,30.45,30.01,5,0,5,0.20
2013-6-24,92,79,73,77,73,70,97,83,56,30.16,30.07,5,0,8,0.08
2013-6-25,88,77,71,77,72,69,97,86,65,30.13,29.77,14,0,14,0.00
2013-6-26,92,81,70,77,73,69,98,79,55,30.08,29.95,12,0,12,0.00
2013-6-27,94,83,37,78,75,-14,97,77,53,34.64,29.87,8,0,10,0.00
2013-6-28,91,82,78,80,77,76,94,86,63,29.90,29.84,12,0,12,0.00
2013-6-29,90,84,76,76,74,71,89,74,63,29.77,29.65,9,0,9,0.00
2013-6-30,87,77,70,77,72,67,97,85,64,29.76,29.66,16,0,16,0.76
2013-7-1,91,80,69,77,70,65,98,76,44,29.87,29.73,10,0,10,0.76
2013-7-2,92,80,70,73,69,66,95,72,45,30.00,29.85,11,0,11,0.76
2013-7-3,75,74,72,73,72,69,97,94,87,30.04,29.92,9,0,10,0.34
2013-7-4,76,74,72,74,72,71,99,96,89,30.04,29.90,14,0,14,4.46
2013-7-5,75,72,69,74,72,69,99,98,96,30.09,30.00,10,0,10,3.18
2013-7-6,79,75,70,76,73,69,99,95,84,30.05,29.98,5,0,9,0.33
2013-7-7,86,77,73,78,74,72,99,92,71,30.11,30.02,11,0,11,0.03
2013-7-8,90,78,73,77,74,72,99,90,62,30.16,30.08,13,0,13,0.03
2013-7-9,91,80,70,77,73,69,99,82,57,30.18,30.05,7,0,7,0.00
2013-7-10,90,78,72,78,74,70,97,88,61,30.10,29.95,11,0,11,0.04
2013-7-11,80,74,71,75,73,70,99,95,80,29.99,29.86,21,0,25,3.87
2013-7-12,90,78,71,78,73,69,99,87,57,29.91,29.82,10,0,10,3.87
2013-7-13,74,72,70,73,71,69,98,97,97,29.89,29.84,1,0,1,0.01
2013-7-15,89,82,74,75,72,69,88,72,60,30.13,30.03,3,0,10,0.00
2013-7-16,90,80,73,76,73,0,95,79,53,30.19,28.30,8,1,20,2.39
2013-7-17,92,82,73,76,72,-5,96,75,49,31.59,30.07,9,0,9,0.00
2013-7-18,89,77,71,78,72,68,97,87,62,30.12,29.99,13,0,13,0.72
2013-7-19,74,73,72,73,72,72,97,97,96,30.07,30.03,0,0,0,0.00
2013-7-20,86,76,72,79,74,71,98,93,74,30.02,29.92,12,0,14,0.57
2013-7-21,88,79,74,77,74,71,98,84,63,32.77,29.93,16,0,16,0.57
2013-7-22,89,77,72,78,73,71,98,90,65,30.06,29.99,21,1,21,0.90
2013-7-23,91,78,70,79,73,69,99,87,59,30.02,29.90,30,1,30,0.57
2013-7-24,87,78,70,79,74,69,99,90,74,29.93,29.82,30,0,30,0.57
2013-7-25,91,80,72,78,73,70,97,80,57,29.98,29.83,6,0,6,0.57
2013-7-26,93,82,72,74,71,67,96,73,45,30.03,29.77,5,0,5,0.57
2013-7-27,87,77,73,78,73,71,96,87,65,29.95,29.90,10,0,10,0.57
2013-7-28,90,79,73,78,74,69,97,86,65,30.00,29.88,13,0,13,0.57
2013-7-29,93,82,74,80,76,72,98,83,57,30.17,29.62,5,0,6,0.57
2013-7-30,92,82,74,78,75,73,97,80,57,30.15,30.04,9,0,9,0.57
2013-7-31,88,80,75,79,75,72,96,87,61,30.09,29.98,11,0,14,0.57
2013-8-1,86,79,75,78,75,73,98,90,74,30.00,29.90,9,0,10,0.57
2013-8-2,92,81,72,78,75,71,98,83,59,30.01,29.90,12,0,12,0.57
2013-8-3,93,83,74,79,75,72,97,79,55,30.05,29.96,11,0,11,0.57
2013-8-4,96,84,74,78,75,72,97,77,49,30.05,29.93,13,0,20,0.03
2013-8-5,94,83,74,77,74,71,97,76,50,30.02,29.92,1,0,1,0.03
2013-8-6,74,74,74,73,72,71,95,93,91,30.00,29.68,0,0,1,0.00
2013-8-7,95,81,72,78,74,70,97,79,47,29.98,29.89,2,0,5,0.00
2013-8-8,91,79,74,78,75,71,95,87,59,29.98,29.91,11,0,11,0.01
2013-8-9,94,83,74,80,76,72,98,81,50,30.06,29.94,3,0,9,0.02
2013-8-10,89,77,73,77,74,71,98,91,64,30.10,29.75,9,0,9,0.03
2013-8-11,94,82,73,80,75,72,99,81,54,30.14,30.05,10,0,10,0.00
2013-8-13,76,75,75,73,72,72,91,90,89,29.96,29.92,0,0,2,0.00
2013-8-14,90,79,73,77,74,71,97,84,61,29.95,29.87,6,0,12,0.10
2013-8-15,88,78,74,77,74,72,98,89,68,30.08,29.59,13,0,16,0.40
2013-8-16,81,76,73,76,74,72,99,92,81,30.00,29.90,6,0,6,0.03
2013-8-17,74,72,70,73,72,67,98,97,91,30.01,29.93,12,0,12,2.36
2013-8-18,84,74,70,80,73,70,99,96,79,30.07,29.98,8,0,14,1.13
2013-8-19,91,75,69,79,72,50,99,91,61,32.19,29.95,1,0,1,0.02
2013-8-20,85,76,73,77,73,71,98,91,75,30.10,29.97,12,0,12,0.16
2013-8-21,92,76,70,77,72,68,98,88,58,30.13,30.03,17,0,17,1.01
2013-8-22,89,78,70,77,73,0,97,87,61,30.67,29.91,14,0,14,0.71
2013-8-23,83,76,71,76,73,70,98,91,74,31.08,29.94,14,0,14,0.06
2013-8-24,94,77,71,77,73,-34,98,89,70,32.77,28.37,11,0,11,0.11
2013-8-25,86,78,73,75,72,68,97,84,64,30.20,30.10,13,0,13,0.03
2013-8-26,88,78,69,69,65,61,84,67,43,30.20,30.08,11,0,11,0.00
2013-8-27,89,77,66,71,66,63,90,70,47,30.12,29.99,5,0,5,0.00
2013-8-28,91,79,67,72,69,65,95,74,48,30.07,29.97,1,0,1,0.00
2013-8-29,92,81,69,72,70,67,96,72,46,30.05,29.94,4,0,4,0.00
2013-8-30,93,82,71,75,72,64,92,75,53,30.11,29.87,4,0,4,0.00
2013-8-31,92,80,74,78,74,72,94,84,59,29.93,29.84,13,0,13,0.03
2013-9-1,95,79,72,79,74,70,98,86,50,30.01,29.86,0,0,0,0.00
2013-9-3,88,75,70,80,73,69,98,94,69,29.98,29.87,4,0,8,0.26
2013-9-4,100,77,69,80,73,-11,98,89,61,30.40,29.94,11,0,11,0.12
2013-9-5,93,81,71,77,73,70,98,80,52,30.11,30.00,13,0,13,0.00
2013-9-6,92,80,72,73,70,66,96,72,47,30.09,29.97,6,0,6,0.00
2013-9-7,93,78,68,76,71,66,96,81,53,30.04,29.95,12,0,12,0.04
2013-9-8,92,80,69,75,70,66,98,75,44,30.00,29.91,7,0,7,0.00
2013-9-9,94,80,68,74,70,66,97,74,44,30.06,29.95,10,0,10,0.05
2013-9-10,92,80,71,76,70,67,97,76,48,30.13,30.01,11,0,11,0.01
2013-9-11,92,80,71,72,69,64,91,71,43,30.13,30.01,11,0,11,0.00
2013-9-12,93,79,72,73,70,66,91,77,44,30.04,29.89,8,0,8,0.00
2013-9-13,93,80,68,73,70,64,97,73,40,29.93,29.78,5,0,5,0.00
2013-9-14,88,79,71,72,67,63,89,68,51,29.99,29.83,11,0,12,0.00
2013-9-15,96,81,69,73,68,62,85,66,42,30.05,29.96,7,0,7,0.00
2013-9-16,93,80,73,77,73,69,95,81,47,30.08,29.97,4,0,8,0.10
2013-9-17,94,80,71,76,73,69,97,82,48,30.07,29.96,13,0,13,1.40
2013-9-18,87,78,71,74,72,70,97,82,62,30.09,30.00,13,0,13,0.07
2013-9-19,74,71,69,70,67,66,91,88,85,30.06,30.01,5,0,5,0.00
2013-9-20,92,76,70,76,69,66,91,81,54,30.02,29.85,6,0,6,0.00
2013-9-21,78,75,73,76,74,72,98,96,90,29.87,29.72,13,0,13,1.74
2013-9-22,78,72,69,74,71,68,99,94,82,29.79,29.71,8,0,8,0.45
2013-9-23,88,76,71,78,73,70,98,91,66,29.89,29.76,12,0,12,1.47
2013-9-24,83,76,72,77,74,70,99,94,80,29.90,29.74,19,0,19,1.51
2013-9-27,70,68,66,61,60,60,81,77,74,30.03,30.02,2,0,4,0.00
2013-9-28,83,72,61,67,62,57,89,72,51,30.09,29.99,7,0,12,0.01
2013-9-29,84,72,60,66,62,56,88,72,45,30.06,29.93,7,0,7,0.00
2013-9-30,85,74,66,70,65,61,88,75,50,29.99,29.91,4,0,5,0.00
2013-10-1,87,75,65,72,67,64,94,77,54,30.07,29.96,7,0,8,0.00
2013-10-2,79,73,70,74,70,66,96,88,77,30.07,29.99,6,0,6,0.13
2013-10-3,88,76,67,73,69,65,96,82,53,30.08,29.98,9,0,9,0.00
2013-10-4,92,78,68,74,71,67,95,80,49,30.07,29.98,8,0,8,0.01
2013-10-5,90,77,71,76,71,-41,97,87,59,34.57,21.37,2,0,6,0.13
2013-10-6,78,72,69,74,71,68,99,95,86,29.95,29.79,8,0,8,1.35
2013-10-7,78,69,62,71,61,54,99,77,52,29.95,29.79,21,1,21,0.01
2013-10-8,81,68,55,68,60,51,89,76,59,29.99,29.90,10,0,10,0.00
2013-10-9,75,68,61,67,64,59,94,87,72,30.11,29.98,10,0,11,0.00
2013-10-10,84,69,57,68,62,56,97,80,49,30.17,29.99,8,0,8,0.00
2013-10-11,85,71,60,70,62,58,97,77,44,30.06,29.95,8,0,8,0.00
2013-10-12,86,71,59,70,63,58,97,77,46,30.08,29.97,7,0,7,0.00
2013-10-13,84,72,59,65,62,58,96,72,45,30.14,30.04,2,0,2,0.00
2013-10-14,84,72,63,67,62,59,88,72,50,30.11,30.00,11,1,11,0.00
2013-10-15,81,69,62,67,63,59,94,80,58,30.06,29.96,10,0,10,0.00
2013-10-16,84,71,59,67,63,58,97,79,51,30.02,29.91,8,0,8,0.00
2013-10-17,83,72,63,73,68,62,97,86,64,29.96,29.86,15,0,17,0.21
2013-10-18,76,69,65,67,65,63,93,87,72,30.00,29.90,7,0,9,0.02
2013-10-19,73,67,63,65,62,57,94,83,67,30.19,29.89,12,0,12,0.00
2013-10-20,76,65,57,60,57,55,95,78,55,30.04,29.93,9,0,9,0.00
2013-10-21,71,65,60,64,59,54,90,80,72,30.12,29.87,8,0,8,0.01
2013-10-22,74,67,62,66,63,56,97,88,72,30.00,29.85,8,0,8,0.13
2013-10-23,72,62,51,56,48,40,88,64,33,30.10,29.90,13,1,13,0.00
2013-10-24,77,59,44,51,46,40,89,65,33,30.21,30.08,7,0,7,0.00
2013-10-25,66,56,50,50,43,33,94,64,36,30.35,30.16,18,2,18,0.00
2013-10-26,70,54,43,46,38,33,88,57,30,30.29,30.14,10,0,10,0.00
2013-10-27,47,44,42,43,41,40,92,90,87,30.15,30.09,0,0,0,0.00
2013-11-1,73,68,61,71,66,60,97,94,87,29.86,29.75,3,0,12,0.05
2013-11-2,76,60,50,60,53,43,97,80,37,30.08,29.85,12,0,12,0.49
2013-11-3,68,55,45,46,43,40,86,65,37,30.21,30.06,15,1,15,0.00
2013-11-4,74,59,42,54,48,39,90,69,48,30.26,30.17,12,0,12,0.00
2013-11-5,75,63,53,58,51,43,74,66,53,30.28,30.15,18,2,18,0.00
2013-11-6,82,68,57,66,60,50,91,76,55,30.18,30.05,4,0,9,0.00
2013-11-7,66,59,48,65,55,38,96,86,69,30.20,30.01,18,1,18,0.39
2013-11-8,64,53,44,41,37,33,70,56,37,30.27,30.15,21,2,21,0.00
2013-11-9,72,58,44,56,48,37,89,72,55,30.25,30.14,10,0,10,0.00
2013-11-10,75,62,52,59,54,48,91,75,51,30.25,30.14,11,0,11,0.00
2013-11-11,76,59,44,52,48,42,94,71,34,30.22,30.11,7,0,7,0.00
2013-11-12,72,56,41,50,43,22,94,64,43,30.94,30.11,27,3,27,0.00
2013-11-13,54,41,34,27,22,19,76,48,27,30.46,30.35,21,5,21,0.00
2013-11-14,66,50,33,48,37,23,75,61,47,30.40,30.17,9,1,11,0.00
2013-11-15,68,60,54,62,56,46,94,85,71,30.18,30.00,13,0,13,0.00
2013-11-16,73,66,60,65,62,58,97,88,75,30.11,30.00,9,0,9,0.00
2013-11-17,79,72,67,74,69,65,96,90,77,30.01,29.91,14,0,14,0.03
2013-11-18,74,70,56,73,64,40,98,85,52,30.03,29.91,11,0,11,0.85
2013-11-19,65,55,46,44,40,37,79,59,42,30.09,29.97,19,1,19,0.00
2013-11-20,70,57,46,56,48,40,82,72,61,30.16,30.01,13,2,13,0.00
2013-11-21,66,61,53,61,55,48,89,82,77,30.24,30.15,11,1,11,0.00
2013-11-22,71,65,60,65,62,58,96,90,78,30.24,30.10,8,0,8,0.00
2013-11-23,70,63,52,64,58,38,96,85,60,30.21,30.10,17,2,17,0.00
2013-11-24,55,48,42,38,30,24,63,51,34,30.33,30.19,17,4,23,0.00
2013-11-25,57,49,40,52,39,29,92,68,60,30.33,29.92,13,2,13,0.13
2013-11-26,70,60,46,70,59,44,98,96,92,29.95,29.61,15,1,20,2.79
2013-11-27,48,41,31,44,31,23,94,71,46,30.32,29.80,28,3,28,2.79
2013-11-28,51,36,26,29,24,21,85,64,33,30.45,30.31,10,0,10,2.79
2013-11-29,60,42,27,34,29,24,90,65,31,30.51,30.38,12,1,12,2.79
2013-11-30,67,48,31,45,37,28,89,69,35,30.43,30.24,12,0,12,2.79
2013-12-1,66,53,44,52,46,40,91,77,56,30.25,29.99,8,0,8,2.79
2013-12-2,72,57,46,54,50,44,94,79,47,30.00,29.79,10,0,10,2.79
2013-12-3,78,64,52,67,59,50,97,84,59,29.87,29.77,17,1,17,2.79
2013-12-4,78,67,60,73,65,58,98,94,75,29.98,29.85,14,0,14,1.39
2013-12-5,74,74,73,71,71,70,92,91,89,30.04,29.99,8,0,13,0.00
2013-12-6,79,75,71,72,71,66,94,87,75,30.08,29.98,12,1,20,0.61
2013-12-7,70,51,48,65,48,44,95,89,82,30.25,30.07,15,2,15,0.00
2013-12-8,72,61,48,70,60,47,99,96,91,30.19,30.04,9,0,9,0.01
2013-12-9,73,69,65,72,68,64,98,96,92,30.08,30.01,6,0,12,0.70
2013-12-10,69,51,40,68,47,34,98,86,68,30.30,29.99,25,2,25,0.03
2013-12-11,64,49,36,46,39,30,82,68,52,30.35,30.25,11,1,11,0.00
2013-12-12,58,48,38,40,33,23,71,57,27,30.45,30.31,17,1,17,0.00
2013-12-13,60,47,34,44,32,22,75,57,36,30.33,30.03,11,0,11,0.00
2013-12-14,74,64,52,68,59,44,91,83,69,30.04,29.80,24,1,24,0.02
2013-12-15,59,45,35,55,38,30,91,78,64,30.24,29.88,18,2,22,0.02
2013-12-16,61,42,31,38,33,28,91,73,39,30.30,30.21,9,0,9,0.00
2013-12-17,35,32,30,32,30,28,92,90,88,30.27,30.23,0,0,0,0.00
2013-12-23,48,45,42,44,39,35,86,81,77,30.32,30.21,12,3,24,0.00
2013-12-24,52,41,31,35,30,25,86,66,40,30.44,30.30,12,2,21,1.65
2013-12-25,54,41,30,36,29,23,76,63,41,30.36,30.23,9,1,9,0.00
2013-12-26,59,48,39,44,38,34,87,70,54,30.30,30.21,18,2,18,0.00
2013-12-27,61,52,42,42,37,34,77,59,42,30.35,30.24,15,3,16,0.00
2013-12-28,57,50,46,56,47,-41,97,90,60,30.97,23.21,26,3,26,2.64
2013-12-29,53,48,42,51,46,40,97,92,80,30.09,29.84,14,1,14,0.00
2013-12-30,58,48,36,51,44,35,96,88,66,30.24,30.08,2,0,2,0.01
2013-12-31,60,46,31,54,42,-39,92,84,78,32.36,28.23,13,2,13,0.00
2014-1-1,64,50,44,51,46,-46,94,88,73,32.77,21.82,7,0,7,0.16
2014-1-2,59,51,-22,56,48,-23,97,91,63,32.14,29.85,30,2,30,0.12